Time;durP1;ratioP1;P1;durP2;ratioP2;P2;SDS_P1;SDS_P2;PMS_P1;PMS_P2;Temp;Humidity;BMP_temperature;BMP_pressure;BME280_temperature;BME280_humidity;BME280_pressure;Samples;Min_cycle;Max_cycle;Signal;HPM_P1;HPM_P2
2022/10/17 00:01:12;;;;;;;4.45;1.50;;;13.40;99.90;;;13.09;100.00;97783.63;4955935;28;20511;-41
2022/10/17 00:03:39;;;;;;;3.10;1.67;;;13.40;99.90;;;13.08;100.00;97786.34;4952074;28;20242;-43
2022/10/17 00:06:09;;;;;;;5.30;2.40;;;13.40;99.90;;;13.09;100.00;97791.56;4952063;28;20464;-42
2022/10/17 00:08:36;;;;;;;2.90;1.88;;;13.40;99.90;;;13.14;100.00;97786.97;4938933;28;20225;-41
2022/10/17 00:11:06;;;;;;;4.72;2.17;;;13.50;99.90;;;13.11;100.00;97788.88;4950722;28;20116;-43
2022/10/17 00:13:33;;;;;;;3.03;1.75;;;13.40;99.90;;;12.94;100.00;97768.38;4957600;28;20062;-42
2022/10/17 00:15:59;;;;;;;3.92;1.60;;;13.40;99.90;;;13.01;100.00;97791.03;4951762;28;20637;-41
2022/10/17 00:18:25;;;;;;;2.83;2.10;;;13.30;99.90;;;12.85;100.00;97772.25;4948341;28;20034;-44
2022/10/17 00:20:51;;;;;;;2.65;1.85;;;13.30;99.90;;;12.96;100.00;97793.00;4957130;28;20030;-44
2022/10/17 00:23:17;;;;;;;2.60;1.77;;;13.30;99.90;;;12.94;100.00;97795.72;4954450;28;20038;-41
2022/10/17 00:25:43;;;;;;;3.28;1.83;;;13.30;99.90;;;12.88;100.00;97790.66;4959059;28;20282;-42
2022/10/17 00:28:11;;;;;;;3.83;2.00;;;13.20;99.90;;;12.91;100.00;97800.28;4946347;28;20503;-41
2022/10/17 00:30:36;;;;;;;2.95;1.80;;;13.20;99.90;;;12.87;100.00;97796.03;4956180;28;20049;-42
2022/10/17 00:33:02;;;;;;;1.90;1.70;;;13.20;99.90;;;12.88;100.00;97806.53;4957513;28;21578;-41
2022/10/17 00:35:28;;;;;;;4.43;1.90;;;13.20;99.90;;;12.88;100.00;97806.53;4957762;28;20026;-42
2022/10/17 00:37:53;;;;;;;2.97;2.10;;;13.20;99.90;;;12.90;100.00;97806.47;4961486;28;20239;-42
2022/10/17 00:40:19;;;;;;;5.05;2.00;;;13.20;99.90;;;12.90;100.00;97809.13;4963448;28;20041;-42
2022/10/17 00:42:45;;;;;;;2.95;1.85;;;13.20;99.90;;;12.92;100.00;97810.81;4963122;28;20030;-42
2022/10/17 00:45:27;;;;;;;2.70;1.80;;;13.20;99.90;;;12.92;100.00;97812.56;4951423;28;20221;-41
2022/10/17 00:48:00;;;;;;;3.50;1.98;;;13.20;99.90;;;12.90;100.00;97804.72;4955905;28;20125;-41
2022/10/17 00:50:27;;;;;;;2.20;1.60;;;13.20;99.90;;;12.89;100.00;97802.97;4950995;28;20491;-42
2022/10/17 00:52:55;;;;;;;4.00;1.85;;;13.20;99.90;;;12.89;100.00;97807.41;4955170;28;20045;-42
2022/10/17 00:55:28;;;;;;;6.25;1.85;;;13.20;99.90;;;12.89;100.00;97802.97;4940533;28;20042;-42
2022/10/17 00:57:56;;;;;;;2.80;2.00;;;13.20;99.90;;;12.88;100.00;97809.19;4935866;28;20030;-43
2022/10/17 01:00:23;;;;;;;3.78;1.98;;;13.20;99.90;;;12.86;100.00;97808.38;4945106;28;20038;-42
2022/10/17 01:02:49;;;;;;;2.80;1.90;;;13.20;99.90;;;12.83;100.00;97797.94;4941729;28;20089;-42
2022/10/17 01:05:16;;;;;;;3.10;2.00;;;13.20;99.90;;;12.79;100.00;97798.97;4949794;28;20544;-42
2022/10/17 01:07:44;;;;;;;3.17;2.05;;;13.10;99.90;;;12.79;100.00;97805.13;4935691;28;20031;-41
2022/10/17 01:10:11;;;;;;;4.28;2.20;;;13.10;99.90;;;12.66;100.00;97795.94;4951800;28;20038;-43
2022/10/17 01:13:16;;;;;;;3.13;2.20;;;13.10;99.90;;;12.71;100.00;97807.22;4937902;28;20507;-43
2022/10/17 01:16:15;;;;;;;3.20;2.50;;;13.10;99.90;;;12.68;100.00;97803.81;4917501;28;20062;-41
2022/10/17 01:19:21;;;;;;;4.03;2.28;;;13.00;99.90;;;12.65;100.00;97804.81;4948423;28;20043;-41
2022/10/17 01:22:26;;;;;;;4.18;2.50;;;13.00;99.90;;;12.63;100.00;97806.63;4940374;28;20027;-41
2022/10/17 01:25:33;;;;;;;2.70;2.08;;;12.90;99.90;;;12.60;100.00;97802.34;4957079;28;20055;-43
2022/10/17 01:28:29;;;;;;;4.63;2.55;;;12.90;99.90;;;12.59;100.00;97800.59;4953813;28;20492;-42
2022/10/17 01:31:15;;;;;;;3.67;2.13;;;12.90;99.90;;;12.51;100.00;97794.75;4950362;28;20054;-43
2022/10/17 01:34:11;;;;;;;2.35;1.92;;;12.90;99.90;;;12.52;100.00;97801.75;4948550;28;20049;-42
2022/10/17 01:37:30;;;;;;;3.63;2.00;;;12.90;99.90;;;12.50;100.00;97794.81;4933742;28;20558;-41
2022/10/17 01:40:15;;;;;;;3.85;2.10;;;12.80;99.90;;;12.48;100.00;97796.66;4939097;28;20059;-41
2022/10/17 01:42:49;;;;;;;4.45;1.80;;;12.80;99.90;;;12.46;100.00;97804.66;4929075;28;20614;-41
2022/10/17 01:45:26;;;;;;;5.15;2.13;;;12.80;99.90;;;12.41;100.00;97807.44;4943950;28;20630;-41
2022/10/17 01:47:53;;;;;;;3.03;1.92;;;12.80;99.90;;;12.22;100.00;97777.31;4944344;28;20374;-42
2022/10/17 01:50:30;;;;;;;3.30;2.17;;;12.70;99.90;;;12.36;100.00;97804.16;4938734;28;20030;-43
2022/10/17 01:53:05;;;;;;;4.90;1.70;;;12.70;99.90;;;12.36;100.00;97800.63;4936039;28;20081;-41
2022/10/17 01:55:35;;;;;;;4.18;1.90;;;12.70;99.90;;;12.32;100.00;97796.38;4934376;28;20031;-43
2022/10/17 01:58:12;;;;;;;2.35;1.80;;;12.70;99.90;;;12.34;100.00;97803.31;4948416;28;20581;-42
2022/10/17 02:00:42;;;;;;;2.42;1.70;;;12.70;99.90;;;12.33;100.00;97796.31;4942688;28;20026;-42
2022/10/17 02:03:13;;;;;;;3.03;1.75;;;12.70;99.90;;;12.33;100.00;97785.75;4933509;28;20943;-43
2022/10/17 02:05:41;;;;;;;1.77;1.50;;;12.70;99.90;;;12.34;100.00;97791.88;4949093;28;20034;-41
2022/10/17 02:08:07;;;;;;;2.33;1.60;;;12.70;99.90;;;12.34;100.00;97790.09;4948888;28;20062;-43
2022/10/17 02:10:45;;;;;;;2.55;1.92;;;12.70;99.90;;;12.36;100.00;97792.69;4964256;28;20049;-43
2022/10/17 02:13:29;;;;;;;2.35;1.73;;;12.70;99.90;;;12.39;100.00;97777.56;4966909;28;20038;-43
2022/10/17 02:16:24;;;;;;;2.05;1.70;;;12.70;99.90;;;12.47;100.00;97784.34;4933143;28;20034;-42
2022/10/17 02:19:15;;;;;;;4.65;1.70;;;12.80;99.90;;;12.51;100.00;97780.69;4938305;28;20499;-42
2022/10/17 02:22:13;;;;;;;2.75;1.67;;;12.90;99.90;;;12.62;100.00;97788.19;4920716;28;20037;-43
2022/10/17 02:24:43;;;;;;;3.25;1.80;;;12.90;99.90;;;12.65;100.00;97794.22;4950567;28;20039;-44
2022/10/17 02:27:36;;;;;;;2.45;1.60;;;13.00;99.90;;;12.64;100.00;97787.19;4939167;28;20137;-44
2022/10/17 02:30:21;;;;;;;2.30;1.70;;;13.00;99.90;;;12.63;100.00;97796.03;4942874;28;20038;-43
2022/10/17 02:32:59;;;;;;;2.50;1.80;;;13.00;99.90;;;12.59;100.00;97797.09;4926482;28;20066;-43
2022/10/17 02:35:31;;;;;;;4.07;1.70;;;13.00;99.90;;;12.56;100.00;97795.44;4941421;28;20093;-43
2022/10/17 02:37:58;;;;;;;2.80;2.00;;;13.00;99.90;;;12.59;100.00;97802.38;4947229;28;20179;-45
2022/10/17 02:40:26;;;;;;;2.38;1.83;;;13.00;99.90;;;12.56;100.00;97794.56;4943693;28;20321;-43
2022/10/17 02:42:54;;;;;;;2.88;1.58;;;13.00;99.90;;;12.70;100.00;97800.19;4953394;28;20642;-42
2022/10/17 02:45:25;;;;;;;3.35;1.65;;;13.00;99.90;;;12.75;100.00;97805.31;4937036;28;22970;-41
2022/10/17 02:48:18;;;;;;;2.10;1.80;;;13.10;99.90;;;12.75;100.00;97803.50;4940339;28;20093;-43
2022/10/17 02:51:03;;;;;;;2.17;1.60;;;13.10;99.90;;;12.78;100.00;97803.41;4941018;28;20096;-42
2022/10/17 02:53:58;;;;;;;2.70;1.73;;;13.10;99.90;;;12.85;100.00;97803.16;4947646;28;20069;-42
2022/10/17 02:56:26;;;;;;;1.95;1.60;;;13.20;99.90;;;12.88;100.00;97797.75;4953367;28;20038;-43
2022/10/17 02:58:56;;;;;;;1.98;1.42;;;13.30;99.90;;;12.92;100.00;97804.63;4929575;28;20031;-46
2022/10/17 03:01:23;;;;;;;2.92;1.58;;;13.30;99.90;;;12.75;100.00;97777.03;4941055;28;20023;-42
2022/10/17 03:03:48;;;;;;;2.17;1.42;;;13.30;99.90;;;12.91;100.00;97798.47;4934217;28;20511;-45
2022/10/17 03:06:15;;;;;;;3.30;1.65;;;13.30;99.90;;;13.02;100.00;97806.00;4956865;28;20689;-43
2022/10/17 03:08:41;;;;;;;1.58;1.30;;;13.40;99.90;;;13.04;100.00;97812.06;4928928;28;20046;-43
2022/10/17 03:11:06;;;;;;;1.58;1.38;;;13.40;99.90;;;13.06;100.00;97799.63;4954761;28;20031;-42
2022/10/17 03:13:32;;;;;;;1.92;1.40;;;13.40;99.90;;;13.13;100.00;97797.59;4945875;28;20096;-43
2022/10/17 03:15:58;;;;;;;2.35;1.67;;;13.50;99.90;;;13.19;100.00;97802.66;4956903;28;20084;-43
2022/10/17 03:18:24;;;;;;;3.08;1.30;;;13.50;99.90;;;13.14;100.00;97808.16;4952243;28;20046;-43
2022/10/17 03:20:49;;;;;;;2.20;1.35;;;13.50;99.90;;;13.11;100.00;97807.41;4959405;28;20489;-42
2022/10/17 03:23:15;;;;;;;1.40;1.13;;;13.50;99.90;;;13.04;100.00;97803.28;4951794;28;20045;-42
2022/10/17 03:25:41;;;;;;;2.28;1.42;;;13.40;99.90;;;12.94;100.00;97803.66;4945700;28;20130;-43
2022/10/17 03:28:08;;;;;;;3.22;1.35;;;13.30;99.90;;;12.94;100.00;97810.75;4954646;28;20043;-43
2022/10/17 03:30:34;;;;;;;2.78;1.50;;;13.30;99.90;;;12.89;100.00;97807.41;4944480;28;20125;-42
2022/10/17 03:33:00;;;;;;;2.67;1.50;;;13.30;99.90;;;12.87;100.00;97820.72;4952676;28;20197;-43
2022/10/17 03:35:26;;;;;;;1.70;1.40;;;13.20;99.90;;;12.85;100.00;97819.03;4955714;28;20069;-43
2022/10/17 03:37:54;;;;;;;2.15;1.65;;;13.20;99.90;;;12.77;100.00;97822.84;4986210;23;20081;-55
2022/10/17 03:40:19;;;;;;;4.25;1.50;;;13.10;99.90;;;12.70;100.00;97818.69;4985414;28;20054;-58
2022/10/17 03:42:45;;;;;;;2.45;1.55;;;13.00;99.90;;;12.64;100.00;97811.03;4981545;28;20121;-56
2022/10/17 03:45:11;;;;;;;1.98;1.48;;;13.00;99.90;;;12.60;100.00;97818.22;4989599;28;20026;-57
2022/10/17 03:47:36;;;;;;;4.95;1.60;;;12.90;99.90;;;12.58;100.00;97821.84;4989328;28;20025;-57
2022/10/17 03:50:03;;;;;;;2.50;1.75;;;12.90;99.90;;;12.53;100.00;97826.44;4980197;28;20034;-57
2022/10/17 03:52:28;;;;;;;2.28;1.85;;;12.90;99.90;;;12.51;100.00;97823.00;4985816;28;20235;-55
2022/10/17 03:54:54;;;;;;;5.32;1.63;;;12.80;99.90;;;12.46;100.00;97823.16;4985839;28;20089;-56
2022/10/17 03:57:20;;;;;;;2.60;1.80;;;12.80;99.90;;;12.38;100.00;97826.09;4989345;28;20026;-55
2022/10/17 03:59:45;;;;;;;2.97;1.85;;;12.80;99.90;;;12.34;100.00;97821.84;4989672;28;20041;-55
2022/10/17 04:02:11;;;;;;;2.75;2.05;;;12.70;99.90;;;12.27;100.00;97822.13;4991244;28;20034;-56
2022/10/17 04:04:37;;;;;;;2.15;1.75;;;12.70;99.90;;;12.23;100.00;97824.03;4985191;28;20832;-56
2022/10/17 04:07:03;;;;;;;4.35;1.80;;;12.60;99.90;;;12.20;100.00;97834.69;4994071;28;20106;-55
2022/10/17 04:09:28;;;;;;;2.58;1.70;;;12.60;99.90;;;12.16;100.00;97839.22;4982097;28;20111;-56
2022/10/17 04:11:54;;;;;;;2.97;1.90;;;12.50;99.90;;;12.14;100.00;97842.88;4975720;28;20567;-56
2022/10/17 04:14:20;;;;;;;2.03;1.77;;;12.50;99.90;;;11.99;100.00;97820.50;4979548;28;20030;-56
2022/10/17 04:16:45;;;;;;;2.72;1.60;;;12.50;99.90;;;12.07;100.00;97838.72;4970815;28;20694;-57
2022/10/17 04:19:12;;;;;;;2.53;1.75;;;12.40;99.90;;;12.05;100.00;97849.34;4969943;28;20065;-57
2022/10/17 04:21:38;;;;;;;3.10;1.70;;;12.40;99.90;;;12.01;100.00;97845.09;4985883;28;20029;-56
2022/10/17 04:24:04;;;;;;;1.98;1.75;;;12.40;99.90;;;12.02;100.00;97847.69;4977356;28;20045;-56
2022/10/17 04:26:30;;;;;;;3.72;1.70;;;12.40;99.90;;;12.08;100.00;97851.88;4981537;28;20121;-56
2022/10/17 04:28:56;;;;;;;2.15;1.65;;;12.50;99.90;;;12.10;100.00;97857.13;4979352;28;20483;-56
2022/10/17 04:31:21;;;;;;;2.75;1.80;;;12.40;99.90;;;12.10;100.00;97865.06;4976055;28;20026;-56
2022/10/17 04:33:49;;;;;;;2.22;1.58;;;12.50;99.90;;;12.10;100.00;97865.06;4982508;28;20442;-57
2022/10/17 04:36:18;;;;;;;2.22;1.67;;;12.50;99.90;;;12.10;100.00;97865.91;4987253;28;20926;-56
2022/10/17 04:38:44;;;;;;;2.45;1.65;;;12.50;99.90;;;11.95;100.00;97832.97;4971777;28;20597;-57
2022/10/17 04:41:13;;;;;;;1.80;1.30;;;12.50;99.90;;;12.10;100.00;97860.63;4978228;28;20040;-56
2022/10/17 04:43:39;;;;;;;1.63;1.42;;;12.50;99.90;;;12.08;100.00;97862.47;4976364;28;20030;-58
2022/10/17 04:46:12;;;;;;;2.25;1.65;;;12.50;99.90;;;12.09;100.00;97860.69;4977230;28;20038;-57
2022/10/17 04:48:39;;;;;;;4.60;1.58;;;12.50;99.90;;;12.07;100.00;97862.50;4969938;28;20129;-57
2022/10/17 04:51:13;;;;;;;3.17;1.52;;;12.50;99.90;;;12.03;100.00;97853.81;4977422;28;20037;-56
2022/10/17 04:53:40;;;;;;;1.85;1.50;;;12.50;99.90;;;12.02;100.00;97852.09;4969877;28;20352;-57
2022/10/17 04:56:19;;;;;;;1.60;1.50;;;12.40;99.90;;;12.10;100.00;97862.41;4971733;28;20123;-57
2022/10/17 04:58:45;;;;;;;3.33;1.77;;;12.50;99.90;;;12.08;100.00;97854.53;4967555;28;20045;-57
2022/10/17 05:01:15;;;;;;;4.18;1.75;;;12.50;99.90;;;11.98;100.00;97842.53;4968016;28;20030;-58
2022/10/17 05:03:41;;;;;;;3.38;1.70;;;12.50;99.90;;;12.12;100.00;97869.34;4972853;28;21551;-57
2022/10/17 05:06:12;;;;;;;3.78;1.80;;;12.50;99.90;;;12.14;100.00;97866.66;4976535;28;20033;-58
2022/10/17 05:08:38;;;;;;;2.25;1.70;;;12.50;99.90;;;12.13;100.00;97864.91;4978095;28;20029;-58
2022/10/17 05:11:05;;;;;;;2.45;1.73;;;12.50;99.90;;;12.09;100.00;97860.69;4975843;28;20133;-58
2022/10/17 05:13:32;;;;;;;2.47;1.80;;;12.50;99.90;;;12.14;100.00;97867.53;4969544;28;20129;-58
2022/10/17 05:16:00;;;;;;;2.20;2.00;;;12.50;99.90;;;12.14;100.00;97864.03;4977347;28;20057;-59
2022/10/17 05:18:27;;;;;;;3.13;1.98;;;12.50;99.90;;;12.16;100.00;97862.19;4977345;28;20060;-58
2022/10/17 05:20:53;;;;;;;2.15;1.73;;;12.60;99.90;;;12.14;100.00;97862.22;4965025;28;20162;-58
2022/10/17 05:23:19;;;;;;;2.53;1.75;;;12.60;99.90;;;12.19;100.00;97867.38;4966756;28;20033;-58
2022/10/17 05:25:44;;;;;;;3.22;1.70;;;12.60;99.90;;;12.21;100.00;97858.44;4962569;28;20444;-59
2022/10/17 05:28:10;;;;;;;3.03;1.77;;;12.60;99.90;;;12.22;100.00;97857.53;4960888;28;20034;-58
2022/10/17 05:30:36;;;;;;;2.58;1.88;;;12.60;99.90;;;12.19;100.00;97849.72;4963273;28;20373;-57
2022/10/17 05:33:02;;;;;;;3.05;1.80;;;12.60;99.90;;;12.22;100.00;97859.31;4972352;28;20038;-58
2022/10/17 05:35:28;;;;;;;2.25;1.70;;;12.60;99.90;;;12.22;100.00;97865.47;4970451;28;20252;-57
2022/10/17 05:37:53;;;;;;;2.60;2.10;;;12.60;99.90;;;12.21;100.00;97866.38;4965198;28;20509;-48
2022/10/17 05:40:19;;;;;;;4.00;1.80;;;12.60;99.90;;;12.17;100.00;97866.56;4970199;28;20164;-57
2022/10/17 05:42:48;;;;;;;2.03;1.80;;;12.60;99.90;;;12.18;100.00;97870.91;4974422;28;20033;-56
2022/10/17 05:45:15;;;;;;;4.05;2.38;;;12.50;99.90;;;12.15;100.00;97879.84;4982414;28;20179;-57
2022/10/17 05:47:40;;;;;;;2.00;1.80;;;12.50;99.90;;;12.09;100.00;97863.31;4979978;28;20060;-57
2022/10/17 05:50:08;;;;;;;3.50;1.92;;;12.50;99.90;;;12.10;100.00;97873.00;4980869;28;20499;-57
2022/10/17 05:52:34;;;;;;;2.70;2.10;;;12.50;99.90;;;12.09;100.00;97873.91;4981943;28;20087;-57
2022/10/17 05:54:59;;;;;;;3.80;2.10;;;12.40;99.90;;;12.06;100.00;97874.00;4984254;28;20124;-57
2022/10/17 05:57:25;;;;;;;3.13;2.05;;;12.40;99.90;;;12.03;100.00;97870.53;4983440;28;20030;-58
2022/10/17 05:59:51;;;;;;;2.85;2.00;;;12.40;99.90;;;12.03;100.00;97882.91;4966103;28;20411;-58
2022/10/17 06:02:17;;;;;;;2.85;2.03;;;12.40;99.90;;;12.05;100.00;97888.16;4985493;28;20029;-58
2022/10/17 06:04:44;;;;;;;2.95;1.92;;;12.40;99.90;;;12.02;100.00;97887.34;4984011;28;20069;-58
2022/10/17 06:07:11;;;;;;;4.43;2.03;;;12.30;99.90;;;11.92;100.00;97872.72;4972111;28;20116;-58
2022/10/17 06:09:37;;;;;;;3.22;1.90;;;12.40;99.90;;;11.97;100.00;97881.34;4976291;28;20030;-58
2022/10/17 06:12:03;;;;;;;3.58;2.53;;;12.40;99.90;;;11.97;100.00;97870.78;4989051;28;20045;-58
2022/10/17 06:14:29;;;;;;;3.72;2.20;;;12.40;99.90;;;12.03;100.00;97885.56;4989676;28;20045;-58
2022/10/17 06:16:55;;;;;;;3.33;2.05;;;12.40;99.90;;;12.00;100.00;97883.00;4988531;28;20135;-58
2022/10/17 06:19:21;;;;;;;3.03;1.80;;;12.40;99.90;;;12.05;100.00;97889.00;4988166;28;20462;-55
2022/10/17 06:21:46;;;;;;;4.95;2.17;;;12.40;99.90;;;12.06;100.00;97884.56;4980428;28;20484;-53
2022/10/17 06:24:12;;;;;;;1.98;1.77;;;12.40;99.90;;;12.06;100.00;97887.22;4988875;28;20113;-55
2022/10/17 06:26:38;;;;;;;2.38;1.90;;;12.40;99.90;;;12.11;100.00;97882.63;4971063;28;20026;-55
2022/10/17 06:29:04;;;;;;;4.65;2.10;;;12.50;99.90;;;12.15;100.00;97884.22;4993946;28;20026;-55
2022/10/17 06:31:29;;;;;;;3.53;2.28;;;12.60;99.90;;;12.17;100.00;97871.84;4985220;28;20037;-55
2022/10/17 06:33:55;;;;;;;3.03;2.17;;;12.60;99.90;;;12.25;100.00;97890.94;4986504;28;20038;-55
2022/10/17 06:36:21;;;;;;;3.22;2.08;;;12.70;99.90;;;12.26;100.00;97891.78;4986135;28;20533;-55
2022/10/17 06:38:46;;;;;;;2.50;1.95;;;12.70;99.90;;;12.30;100.00;97889.00;4985219;28;20022;-55
2022/10/17 06:41:15;;;;;;;6.25;2.42;;;12.70;99.90;;;12.40;100.00;97894.81;4984467;28;20476;-55
2022/10/17 06:43:44;;;;;;;4.65;2.28;;;12.80;99.90;;;12.43;100.00;97899.13;4985796;28;20034;-55
2022/10/17 06:46:11;;;;;;;3.95;2.28;;;12.80;99.90;;;12.49;100.00;97905.06;4981024;28;20357;-55
2022/10/17 06:48:37;;;;;;;2.92;1.95;;;13.00;99.90;;;12.60;100.00;97917.91;4982120;28;20100;-54
2022/10/17 06:51:05;;;;;;;6.60;2.25;;;13.00;99.90;;;12.66;100.00;97927.38;4985831;28;20119;-55
2022/10/17 06:53:33;;;;;;;7.50;2.25;;;13.00;99.90;;;12.70;100.00;97935.16;4989263;28;20034;-55
2022/10/17 06:56:03;;;;;;;2.90;2.10;;;13.10;99.90;;;12.75;100.00;97933.19;4983536;28;20065;-45
2022/10/17 06:58:39;;;;;;;2.90;2.15;;;13.20;99.90;;;12.82;100.00;97940.94;4985430;28;20045;-56
2022/10/17 07:01:11;;;;;;;3.38;2.00;;;13.30;99.90;;;12.89;100.00;97945.06;4970722;28;20037;-57
2022/10/17 07:03:37;;;;;;;2.60;2.05;;;13.30;99.90;;;12.95;100.00;97944.81;4988429;28;20487;-57
2022/10/17 07:06:04;;;;;;;3.40;1.98;;;13.40;99.90;;;13.02;100.00;97945.47;4983678;28;20057;-57
2022/10/17 07:08:29;;;;;;;4.70;2.30;;;13.50;99.90;;;13.08;100.00;97946.09;4991051;28;20040;-56
2022/10/17 07:10:55;;;;;;;2.55;2.10;;;13.50;99.90;;;13.18;100.00;97943.94;4971296;28;20038;-57
2022/10/17 07:13:22;;;;;;;4.03;2.30;;;13.60;99.90;;;13.30;100.00;97951.41;4985719;28;20038;-56
2022/10/17 07:15:48;;;;;;;3.60;2.03;;;13.70;99.90;;;13.42;100.00;97949.22;4982804;28;20026;-57
2022/10/17 07:18:13;;;;;;;2.88;2.00;;;13.80;99.90;;;13.53;100.00;97950.53;4988085;28;20080;-56
2022/10/17 07:20:39;;;;;;;3.38;2.17;;;14.00;99.90;;;13.64;100.00;97958.06;4986376;28;20168;-50
2022/10/17 07:23:06;;;;;;;4.70;2.60;;;14.00;99.90;;;13.76;100.00;97962.00;4983224;28;20034;-58
2022/10/17 07:25:31;;;;;;;4.10;2.13;;;14.20;99.90;;;13.86;100.00;97963.34;4988315;28;20018;-57
2022/10/17 07:27:57;;;;;;;4.78;2.70;;;14.30;99.90;;;13.98;100.00;97969.06;4982906;28;20373;-58
2022/10/17 07:30:23;;;;;;;4.45;2.38;;;14.40;99.90;;;14.07;100.00;97966.91;4986463;28;20059;-58
2022/10/17 07:32:53;;;;;;;4.90;2.25;;;14.50;99.90;;;14.19;100.00;97969.94;4984523;28;20496;-57
2022/10/17 07:35:19;;;;;;;4.18;2.08;;;14.60;99.90;;;14.32;100.00;97973.81;4986591;28;20062;-57
2022/10/17 07:37:44;;;;;;;4.45;2.45;;;14.70;99.90;;;14.43;100.00;97976.88;4988725;28;20252;-57
2022/10/17 07:40:10;;;;;;;3.97;2.15;;;14.90;99.90;;;14.53;100.00;97972.00;4989919;28;20057;-58
2022/10/17 07:42:36;;;;;;;5.35;2.33;;;14.90;99.90;;;14.66;100.00;97975.91;4990430;28;20069;-57
2022/10/17 07:45:03;;;;;;;2.47;1.90;;;15.10;99.90;;;14.75;100.00;97982.59;4990387;28;20125;-57
2022/10/17 07:47:29;;;;;;;5.65;2.30;;;15.10;99.90;;;14.81;100.00;97987.63;4993049;28;20396;-57
2022/10/17 07:49:56;;;;;;;2.40;1.77;;;15.20;99.90;;;14.87;100.00;97989.97;4985415;28;20037;-57
2022/10/17 07:52:22;;;;;;;3.67;1.80;;;15.30;99.90;;;14.94;100.00;97987.06;4997301;28;20051;-58
2022/10/17 07:54:48;;;;;;;3.38;1.90;;;15.40;99.90;;;15.02;100.00;97979.59;4990360;28;20120;-57
2022/10/17 07:57:14;;;;;;;3.53;2.00;;;15.40;99.90;;;15.10;100.00;97982.78;4990394;28;20038;-57
2022/10/17 07:59:39;;;;;;;2.88;1.80;;;15.50;99.90;;;15.20;100.00;97994.72;4990152;28;20038;-57
2022/10/17 08:02:06;;;;;;;4.65;1.70;;;15.60;99.90;;;15.30;100.00;97992.47;4992455;28;20364;-58
2022/10/17 08:04:33;;;;;;;3.45;1.95;;;15.70;99.90;;;15.38;100.00;97986.78;4965791;28;20466;-57
2022/10/17 08:07:00;;;;;;;4.97;1.60;;;15.80;99.90;;;15.44;100.00;97983.88;4988983;28;20049;-58
2022/10/17 08:09:25;;;;;;;5.38;3.10;;;15.90;99.90;;;15.60;100.00;97994.63;4989049;28;22728;-58
2022/10/17 08:11:52;;;;;;;4.20;2.35;;;16.00;99.90;;;15.68;100.00;97989.78;4988273;28;20036;-58
2022/10/17 08:14:18;;;;;;;3.08;2.05;;;16.10;99.90;;;15.81;100.00;97990.13;4990850;28;20088;-58
2022/10/17 08:16:44;;;;;;;8.98;2.45;;;16.20;99.90;;;15.93;100.00;97989.50;4973342;28;20041;-58
2022/10/17 08:19:10;;;;;;;4.30;2.40;;;16.30;99.90;;;16.09;100.00;97997.59;4990376;28;20645;-58
2022/10/17 08:21:37;;;;;;;13.25;3.30;;;16.50;99.90;;;16.25;100.00;97995.03;4993658;28;20123;-57
2022/10/17 08:24:03;;;;;;;7.07;2.22;;;16.60;99.90;;;16.39;100.00;97997.00;4990993;28;20029;-58
2022/10/17 08:26:29;;;;;;;4.85;1.98;;;16.80;99.90;;;16.40;100.00;97977.41;4982524;28;20041;-58
2022/10/17 08:28:55;;;;;;;7.22;2.00;;;16.90;99.90;;;16.63;100.00;98000.19;4988167;28;20041;-58
2022/10/17 08:31:22;;;;;;;2.15;1.60;;;17.00;99.90;;;16.76;100.00;97987.97;4986669;28;20121;-58
2022/10/17 08:33:49;;;;;;;3.72;1.50;;;17.10;99.90;;;16.90;100.00;97997.03;4989732;28;20026;-58
2022/10/17 08:36:19;;;;;;;2.88;1.52;;;17.20;99.90;;;17.00;100.00;98000.09;4993310;28;20053;-58
2022/10/17 08:38:45;;;;;;;2.22;1.50;;;17.30;99.90;;;17.08;100.00;98009.38;4991485;28;20034;-58
2022/10/17 08:41:43;;;;;;;1.40;1.13;;;17.40;99.90;;;17.18;100.00;97999.94;4992906;28;20030;-58
2022/10/17 08:44:29;;;;;;;1.45;1.20;;;17.50;99.90;;;17.25;100.00;98003.16;4986949;28;20056;-58
2022/10/17 08:47:01;;;;;;;1.70;1.38;;;17.60;99.90;;;17.35;100.00;98001.72;4989338;28;20528;-58
2022/10/17 08:49:46;;;;;;;2.83;1.70;;;17.70;99.90;;;17.49;100.00;98000.06;4977869;28;20458;-58
2022/10/17 08:52:38;;;;;;;3.65;1.42;;;17.80;99.90;;;17.68;100.00;98013.25;4964673;28;20092;-58
2022/10/17 08:55:15;;;;;;;4.20;1.60;;;17.90;99.90;;;17.85;100.00;98012.28;4966305;28;20057;-58
2022/10/17 08:57:42;;;;;;;2.55;1.63;;;18.20;99.90;;;18.05;100.00;98011.19;4988517;28;20881;-58
2022/10/17 09:00:29;;;;;;;2.63;1.50;;;18.40;99.90;;;18.24;100.00;98019.84;4978926;28;20087;-58
2022/10/17 09:03:21;;;;;;;2.25;1.50;;;18.50;99.90;;;18.40;100.00;98009.13;4966869;28;20034;-58
2022/10/17 09:06:07;;;;;;;;;;;18.70;99.90;;;18.56;100.00;98011.75;4968452;28;20119;-58
2022/10/17 09:08:47;;;;;;;2.03;1.63;;;18.80;99.90;;;18.66;100.00;98014.72;4969734;28;20020;-55
2022/10/17 09:11:38;;;;;;;3.17;1.80;;;18.90;99.90;;;18.73;100.00;98008.06;4975124;28;20061;-50
2022/10/17 09:14:42;;;;;;;2.75;1.42;;;19.00;99.90;;;18.82;100.00;98006.69;4986037;28;20026;-57
2022/10/17 09:17:58;;;;;;;5.47;1.73;;;19.10;99.90;;;18.84;100.00;98007.44;4974100;28;20036;-57
2022/10/17 09:20:46;;;;;;;2.17;1.52;;;19.10;99.90;;;18.86;100.00;98014.44;4951249;28;20054;-57
2022/10/17 09:23:26;;;;;;;3.40;1.88;;;19.20;99.90;;;18.88;100.00;98009.84;4990349;28;20064;-57
2022/10/17 09:25:56;;;;;;;2.05;1.50;;;19.10;99.90;;;18.87;100.00;98016.13;4990136;28;20092;-57
2022/10/17 09:28:35;;;;;;;2.75;1.90;;;19.20;99.90;;;18.87;100.00;98012.59;4976104;28;20038;-57
2022/10/17 09:31:28;;;;;;;4.05;1.85;;;19.10;99.90;;;18.87;100.00;98018.81;4974756;28;20048;-57
2022/10/17 09:33:56;;;;;;;2.20;1.40;;;19.10;99.90;;;18.89;100.00;98022.25;4974776;28;20035;-57
2022/10/17 09:36:31;;;;;;;2.90;1.70;;;19.20;99.90;;;18.93;100.00;98022.06;4979792;28;20563;-57
2022/10/17 09:39:22;;;;;;;7.88;2.33;;;19.20;99.90;;;18.91;100.00;98015.97;5005448;23;20058;-43
2022/10/17 09:41:54;;;;;;;5.55;2.00;;;19.20;99.90;;;18.95;100.00;98007.66;4969874;28;20040;-42
2022/10/17 09:44:23;;;;;;;6.07;2.05;;;19.20;99.90;;;19.01;100.00;98006.44;4976543;28;20109;-43
2022/10/17 09:47:16;;;;;;;2.70;1.70;;;19.30;99.90;;;19.12;100.00;98014.63;4993475;28;20510;-42
2022/10/17 09:49:45;;;;;;;3.30;1.75;;;19.40;99.90;;;19.21;100.00;98016.72;4970735;28;20034;-43
2022/10/17 09:52:20;;;;;;;4.50;1.73;;;19.50;99.90;;;19.27;100.00;98008.34;4970567;28;20035;-43
2022/10/17 09:54:54;;;;;;;2.30;1.50;;;19.60;99.90;;;19.30;100.00;98009.94;4973666;28;20504;-45
2022/10/17 09:57:21;;;;;;;3.53;1.70;;;19.60;99.90;;;19.22;100.00;97982.81;4951854;28;20080;-43
2022/10/17 10:00:04;;;;;;;5.68;1.85;;;19.70;99.90;;;19.44;100.00;98009.09;4975027;28;20037;-42
2022/10/17 10:02:32;;;;;;;3.10;1.50;;;19.70;99.90;;;19.48;100.00;98010.59;4975746;28;20428;-42
2022/10/17 10:05:03;;;;;;;1.40;1.30;;;19.80;99.90;;;19.56;100.00;98013.66;4977191;28;20144;-43
2022/10/17 10:07:32;;;;;;;4.53;1.90;;;19.90;99.90;;;19.59;97.18;98012.59;4975841;28;20044;-43
2022/10/17 10:10:01;;;;;;;2.83;1.83;;;19.90;99.90;;;19.62;99.51;98007.91;4970872;28;20118;-43
2022/10/17 10:12:37;;;;;;;3.35;1.90;;;19.90;99.90;;;19.70;96.72;98009.22;4976136;28;20042;-43
2022/10/17 10:15:36;;;;;;;2.50;2.00;;;20.00;99.90;;;19.78;95.54;98017.69;4958581;28;20478;-43
2022/10/17 10:18:06;;;;;;;2.78;1.70;;;20.10;99.90;;;19.85;96.33;98019.00;4978516;28;20109;-43
2022/10/17 10:20:35;;;;;;;2.05;1.55;;;20.20;99.90;;;19.89;96.16;98014.31;4956020;28;20038;-43
2022/10/17 10:23:05;;;;;;;5.20;3.13;;;20.20;99.90;;;19.82;92.75;97995.09;4974274;28;20030;-43
2022/10/17 10:25:31;;;;;;;8.73;2.60;;;20.20;99.90;;;20.06;91.65;98023.88;4980731;28;20088;-43
2022/10/17 10:27:57;;;;;;;3.53;2.10;;;20.30;99.90;;;20.14;92.40;98018.91;4977188;28;20449;-42
2022/10/17 10:30:29;;;;;;;3.65;1.95;;;20.40;99.90;;;20.22;89.52;98029.94;4971474;28;24560;-43